createdAt,value
2018-10-06T00:00:12.212Z,43.81
2018-10-06T00:05:15.644Z,44.24
2018-10-06T00:10:19.072Z,43.90
2018-10-06T00:15:22.528Z,44.30
2018-10-06T00:20:25.972Z,44.12
2018-10-06T00:25:29.389Z,44.19
2018-10-06T00:30:32.812Z,44.45
2018-10-06T00:35:36.257Z,44.11
2018-10-06T00:40:39.697Z,44.17
2018-10-06T00:45:43.114Z,44.06
2018-10-06T00:50:46.533Z,44.27
2018-10-06T00:55:49.959Z,44.18
2018-10-06T01:00:53.384Z,44.29
2018-10-06T01:05:56.800Z,44.22
2018-10-06T01:11:00.222Z,44.41
2018-10-06T01:16:03.656Z,44.31
2018-10-06T01:21:07.185Z,44.64
2018-10-06T01:26:10.606Z,44.44
2018-10-06T01:31:14.069Z,44.55
2018-10-06T01:36:17.488Z,44.56
2018-10-06T01:41:20.930Z,44.52
2018-10-06T01:46:24.352Z,44.31
2018-10-06T01:51:27.845Z,44.61
2018-10-06T01:56:31.262Z,44.44
2018-10-06T02:01:34.677Z,45.09
2018-10-06T02:06:38.134Z,44.78
2018-10-06T02:11:41.541Z,44.87
2018-10-06T02:16:45.049Z,45.20
2018-10-06T02:21:48.526Z,44.85
2018-10-06T02:26:51.951Z,45.25
2018-10-06T02:31:55.416Z,45.19
2018-10-06T02:36:59.003Z,45.27
2018-10-06T02:42:02.365Z,45.34
2018-10-06T02:47:05.876Z,45.60
2018-10-06T02:52:09.327Z,45.57
2018-10-06T02:57:12.777Z,45.93
2018-10-06T03:02:16.211Z,45.69
2018-10-06T03:07:19.637Z,45.91
2018-10-06T03:12:23.088Z,46.09
2018-10-06T03:17:26.505Z,46.10
2018-10-06T03:22:29.965Z,45.97
2018-10-06T03:27:33.387Z,46.39
2018-10-06T03:37:39.393Z,46.38
2018-10-06T03:42:42.836Z,46.60
2018-10-06T03:47:46.272Z,46.73
2018-10-06T03:52:49.736Z,46.73
2018-10-06T03:57:53.141Z,46.46
2018-10-06T04:02:56.541Z,46.53
2018-10-06T04:07:59.950Z,46.45
2018-10-06T04:13:03.370Z,45.81
2018-10-06T04:18:07.091Z,45.81
2018-10-06T04:23:10.506Z,45.69
2018-10-06T04:28:14.025Z,46.09
2018-10-06T04:33:17.426Z,45.59
2018-10-06T04:38:21.549Z,45.86
2018-10-06T04:43:25.043Z,45.59
2018-10-06T04:48:28.648Z,46.00
2018-10-06T04:53:32.125Z,45.53
2018-10-06T04:58:35.599Z,45.73
2018-10-06T05:03:39.047Z,45.64
2018-10-06T05:08:42.489Z,45.87
2018-10-06T05:13:46.188Z,46.06
2018-10-06T05:18:49.746Z,46.00
2018-10-06T05:23:53.170Z,46.01
2018-10-06T05:28:56.604Z,45.93
2018-10-06T05:34:00.111Z,46.02
2018-10-06T05:39:04.205Z,45.96
2018-10-06T05:44:07.654Z,45.76
2018-10-06T05:49:11.721Z,46.03
2018-10-06T05:54:16.064Z,46.17
2018-10-06T05:59:19.497Z,46.06
2018-10-06T06:04:23.012Z,46.13
2018-10-06T06:09:26.502Z,45.99
2018-10-06T06:14:29.969Z,46.23
2018-10-06T06:19:33.603Z,46.29
2018-10-06T06:24:37.047Z,46.07
2018-10-06T06:29:40.569Z,46.00
2018-10-06T06:34:44.085Z,46.11
2018-10-06T06:39:47.535Z,46.29
2018-10-06T06:44:50.975Z,46.17
2018-10-06T06:49:54.387Z,46.08
2018-10-06T06:54:57.833Z,46.15
2018-10-06T07:00:01.321Z,46.36
2018-10-06T07:05:05.328Z,44.26
2018-10-06T07:10:08.783Z,42.14
2018-10-06T07:15:12.222Z,41.66
2018-10-06T07:20:15.744Z,40.91
2018-10-06T07:25:19.317Z,41.70
2018-10-06T07:30:22.824Z,41.92
2018-10-06T07:35:26.311Z,41.79
2018-10-06T07:40:29.815Z,42.88
2018-10-06T07:45:33.271Z,42.11
2018-10-06T07:50:36.720Z,42.14
2018-10-06T07:55:40.337Z,42.21
2018-10-06T08:00:43.928Z,42.09
2018-10-06T08:05:48.097Z,42.05
2018-10-06T08:10:51.597Z,43.10
2018-10-06T08:15:55.065Z,42.11
2018-10-06T08:20:59.228Z,42.88
2018-10-06T08:26:03.203Z,43.20
2018-10-06T08:31:06.996Z,43.67
2018-10-06T08:36:10.432Z,43.44
2018-10-06T08:41:14.215Z,42.78
2018-10-06T08:46:17.922Z,43.60
2018-10-06T08:51:21.357Z,43.79
2018-10-06T08:56:25.313Z,44.56
2018-10-06T09:01:28.730Z,44.76
2018-10-06T09:06:32.409Z,44.74
2018-10-06T09:11:36.252Z,44.20
2018-10-06T09:16:39.716Z,44.26
2018-10-06T09:21:43.161Z,44.60
2018-10-06T09:26:46.742Z,44.84
2018-10-06T09:31:50.165Z,45.17
2018-10-06T09:36:53.607Z,45.04
2018-10-06T09:41:57.155Z,45.52
2018-10-06T09:47:00.533Z,45.51
2018-10-06T09:52:03.991Z,45.19
2018-10-06T09:57:07.528Z,46.00
2018-10-06T10:02:15.107Z,45.28
2018-10-06T10:07:18.576Z,45.40
2018-10-06T10:12:22.028Z,45.03
2018-10-06T10:17:25.711Z,44.88
2018-10-06T10:22:29.269Z,44.77
2018-10-06T10:27:32.618Z,44.47
2018-10-06T10:32:36.176Z,44.78
2018-10-06T10:37:39.717Z,44.78
2018-10-06T10:42:43.275Z,44.41
2018-10-06T10:47:46.693Z,44.44
2018-10-06T10:52:50.178Z,45.25
2018-10-06T10:57:53.761Z,44.94
2018-10-06T11:02:57.194Z,44.00
2018-10-06T11:08:00.629Z,43.28
2018-10-06T11:13:04.218Z,44.68
2018-10-06T11:18:07.673Z,44.20
2018-10-06T11:23:11.104Z,45.05
2018-10-06T11:28:14.709Z,44.27
2018-10-06T11:33:18.134Z,44.80
2018-10-06T11:38:21.613Z,43.70
2018-10-06T11:43:25.063Z,44.00
2018-10-06T11:48:28.512Z,44.62
2018-10-06T11:53:32.110Z,44.37
2018-10-06T11:58:35.597Z,44.28
2018-10-06T12:03:39.093Z,44.94
2018-10-06T12:08:42.545Z,45.41
2018-10-06T12:13:46.114Z,44.98
2018-10-06T12:18:49.561Z,44.92
2018-10-06T12:23:52.999Z,44.49
2018-10-06T12:28:56.452Z,44.73
2018-10-06T12:33:59.928Z,45.20
2018-10-06T12:39:04.098Z,45.49
2018-10-06T12:44:07.529Z,45.16
2018-10-06T12:49:10.981Z,45.11
2018-10-06T12:54:14.639Z,45.69
2018-10-06T12:59:18.082Z,45.52
2018-10-06T13:04:21.527Z,45.75
2018-10-06T13:09:24.968Z,45.87
2018-10-06T13:14:28.414Z,45.71
2018-10-06T13:19:31.922Z,46.01
2018-10-06T13:24:35.349Z,45.61
2018-10-06T13:29:38.792Z,45.26
2018-10-06T13:34:42.237Z,45.27
2018-10-06T13:39:45.684Z,45.16
2018-10-06T13:44:49.388Z,45.12
2018-10-06T13:49:53.014Z,45.20
2018-10-06T13:54:56.469Z,44.72
2018-10-06T13:59:59.937Z,45.13
2018-10-06T14:05:03.574Z,44.85
2018-10-06T14:10:07.080Z,44.87
2018-10-06T14:15:10.553Z,44.96
2018-10-06T14:20:14.020Z,44.76
2018-10-06T14:25:17.466Z,44.61
2018-10-06T14:30:20.906Z,44.76
2018-10-06T14:35:24.614Z,44.70
2018-10-06T14:40:28.065Z,45.43
2018-10-06T14:45:31.592Z,45.50
2018-10-06T14:50:35.059Z,45.41
2018-10-06T14:55:38.533Z,45.10
2018-10-06T15:00:44.657Z,45.20
2018-10-06T15:05:48.106Z,45.10
2018-10-06T15:10:51.535Z,44.98
2018-10-06T15:15:55.524Z,44.38
2018-10-06T15:20:59.203Z,44.37
2018-10-06T15:26:03.007Z,44.64
2018-10-06T15:31:06.501Z,44.53
2018-10-06T15:36:09.988Z,44.29
2018-10-06T15:41:14.345Z,44.60
2018-10-06T15:46:17.781Z,44.57
2018-10-06T15:51:22.202Z,45.19
2018-10-06T15:56:25.805Z,44.67
2018-10-06T16:01:31.616Z,45.07
2018-10-06T16:06:35.077Z,44.63
2018-10-06T16:11:38.569Z,45.31
2018-10-06T16:16:43.135Z,45.29
2018-10-06T16:21:46.592Z,45.68
2018-10-06T16:26:50.031Z,45.56
2018-10-06T16:31:53.500Z,45.66
2018-10-06T16:36:56.979Z,45.69
2018-10-06T16:42:00.417Z,45.53
2018-10-06T16:47:03.846Z,45.80
2018-10-06T16:52:07.277Z,46.03
2018-10-06T16:57:10.785Z,45.71
2018-10-06T17:02:14.255Z,46.80
2018-10-06T17:07:17.701Z,46.63
2018-10-06T17:12:21.208Z,46.75
2018-10-06T17:17:24.598Z,46.29
2018-10-06T17:22:28.097Z,46.47
2018-10-06T17:27:31.589Z,46.48
2018-10-06T17:32:35.073Z,46.42
2018-10-06T17:37:38.501Z,46.74
2018-10-06T17:42:41.994Z,47.07
2018-10-06T17:47:45.443Z,47.27
2018-10-06T17:52:48.880Z,46.93
2018-10-06T17:57:52.423Z,46.99
2018-10-06T18:02:56.083Z,46.82
2018-10-06T18:07:59.505Z,46.99
2018-10-06T18:13:03.055Z,46.73
2018-10-06T18:18:06.873Z,47.03
2018-10-06T18:23:10.328Z,47.15
2018-10-06T18:28:14.034Z,46.82
2018-10-06T18:33:17.499Z,46.73
2018-10-06T18:38:21.125Z,46.39
2018-10-06T18:43:24.973Z,46.92
2018-10-06T18:48:28.533Z,46.85
2018-10-06T18:53:32.160Z,46.77
2018-10-06T18:58:35.658Z,46.59
2018-10-06T19:03:39.305Z,46.56
2018-10-06T19:08:42.599Z,46.61
2018-10-06T19:13:46.051Z,46.40
2018-10-06T19:18:49.496Z,46.50
2018-10-06T19:23:52.976Z,46.37
2018-10-06T19:28:56.459Z,46.36
2018-10-06T19:33:59.956Z,46.11
2018-10-06T19:39:03.553Z,46.27
2018-10-06T19:44:06.989Z,46.01
2018-10-06T19:49:10.417Z,46.07
2018-10-06T19:54:13.869Z,45.96
2018-10-06T19:59:17.329Z,44.83
2018-10-06T20:04:20.877Z,45.52
2018-10-06T20:09:24.332Z,44.88
2018-10-06T20:14:27.787Z,44.94
2018-10-06T20:19:31.252Z,45.42
2018-10-06T20:24:34.787Z,45.38
2018-10-06T20:29:38.437Z,45.52
2018-10-06T20:34:41.908Z,45.21
2018-10-06T20:39:45.433Z,45.19
2018-10-06T20:44:48.931Z,44.65
2018-10-06T20:49:52.394Z,44.80
2018-10-06T20:54:55.856Z,44.58
2018-10-06T20:59:59.311Z,45.01
2018-10-06T21:05:02.805Z,44.23
2018-10-06T21:10:06.241Z,44.33
2018-10-06T21:15:09.711Z,44.49
2018-10-06T21:20:13.191Z,44.41
2018-10-06T21:25:16.691Z,44.49
2018-10-06T21:30:20.134Z,44.76
2018-10-06T21:35:23.581Z,44.76
2018-10-06T21:40:27.072Z,44.50
2018-10-06T21:45:30.553Z,44.46
2018-10-06T21:50:34.005Z,44.23
2018-10-06T21:55:37.442Z,44.27
2018-10-06T22:00:40.952Z,44.74
2018-10-06T22:05:44.392Z,44.74
2018-10-06T22:10:47.872Z,44.12
2018-10-06T22:15:51.344Z,44.34
2018-10-06T22:20:54.825Z,44.45
2018-10-06T22:25:58.283Z,44.80
2018-10-06T22:31:01.715Z,44.47
2018-10-06T22:36:05.164Z,44.55
2018-10-06T22:41:08.639Z,44.49
2018-10-06T22:46:12.109Z,44.53
2018-10-06T22:51:15.595Z,44.55
2018-10-06T22:56:19.030Z,44.61
2018-10-06T23:01:22.475Z,44.74
2018-10-06T23:06:26.038Z,44.26
2018-10-06T23:11:29.505Z,44.38
2018-10-06T23:16:32.960Z,44.26
2018-10-06T23:21:36.402Z,44.56
2018-10-06T23:26:39.907Z,44.57
2018-10-06T23:31:43.384Z,44.57
2018-10-06T23:36:46.938Z,44.23
2018-10-06T23:41:50.435Z,44.98
2018-10-06T23:46:53.925Z,44.99
2018-10-06T23:51:57.419Z,44.96
2018-10-06T23:57:00.894Z,44.71
